MQC9204 HDAM-HAAB
Flight info
| Callsign | MQC9204 |
|---|---|
| Flight time | N/A |
| Altitude | 32000 |
| Route | LAKBE1G LAKBE LAKBE1B |
| Aircraft | B77L/H-SDE1E2E3FGHIJ2J3J4J5M1RWXY/LB1D1 |
Departure
| Time | 2026-04-27 13:30 |
|---|---|
| Airport | Djibouti-Ambouli Airport (HDAM) |
Arrival
| Time | N/A |
|---|---|
| Airport | Addis Ababa Bole International Airport (HAAB) |
| Time | Latitude | Longitude | Altitude | Speed | Heading |
|---|---|---|---|---|---|
| 2026-04-27 13:13 | 11.55101 | 43.14830 | 59 ft | 0 kts | 139° |
| 2026-04-27 13:26 | 11.55101 | 43.14831 | 59 ft | 0 kts | 139° |
| 2026-04-27 13:27 | 11.55091 | 43.14839 | 59 ft | 6 kts | 143° |
| 2026-04-27 13:27 | 11.55030 | 43.14836 | 55 ft | 10 kts | 212° |
| 2026-04-27 13:27 | 11.55009 | 43.14770 | 58 ft | 10 kts | 269° |
| 2026-04-27 13:27 | 11.55010 | 43.14696 | 55 ft | 10 kts | 271° |
| 2026-04-27 13:28 | 11.55012 | 43.14648 | 61 ft | 4 kts | 272° |
| 2026-04-27 13:28 | 11.55009 | 43.14621 | 59 ft | 4 kts | 249° |
| 2026-04-27 13:28 | 11.54963 | 43.14610 | 58 ft | 12 kts | 181° |
| 2026-04-27 13:28 | 11.54876 | 43.14607 | 56 ft | 13 kts | 181° |
| 2026-04-27 13:29 | 11.54788 | 43.14606 | 54 ft | 13 kts | 180° |
| 2026-04-27 13:29 | 11.54753 | 43.14629 | 56 ft | 4 kts | 92° |
| 2026-04-27 13:29 | 11.54751 | 43.14679 | 60 ft | 16 kts | 91° |
| 2026-04-27 13:29 | 11.54747 | 43.15006 | 58 ft | 82 kts | 90° |
| 2026-04-27 13:30 | 11.54736 | 43.15812 | 51 ft | 143 kts | 90° |
| 2026-04-27 13:30 | 11.54705 | 43.16973 | 219 ft | 171 kts | 92° |
| 2026-04-27 13:30 | 11.54658 | 43.18179 | 818 ft | 172 kts | 88° |
| 2026-04-27 13:30 | 11.54492 | 43.19350 | 1386 ft | 171 kts | 120° |
| 2026-04-27 13:31 | 11.53503 | 43.20082 | 1664 ft | 196 kts | 165° |
| 2026-04-27 13:31 | 11.52071 | 43.19818 | 1833 ft | 230 kts | 207° |
| 2026-04-27 13:31 | 11.50765 | 43.18754 | 2056 ft | 253 kts | 221° |
| 2026-04-27 13:31 | 11.49567 | 43.17326 | 2370 ft | 273 kts | 237° |
| 2026-04-27 13:32 | 11.48624 | 43.15640 | 3212 ft | 274 kts | 241° |
| 2026-04-27 13:32 | 11.47753 | 43.13913 | 4035 ft | 275 kts | 244° |
| 2026-04-27 13:32 | 11.46935 | 43.12157 | 4883 ft | 274 kts | 244° |
| 2026-04-27 13:32 | 11.46088 | 43.10399 | 5619 ft | 279 kts | 243° |
| 2026-04-27 13:33 | 11.45186 | 43.08630 | 6317 ft | 284 kts | 242° |
| 2026-04-27 13:33 | 11.44238 | 43.06846 | 6988 ft | 289 kts | 241° |
| 2026-04-27 13:33 | 11.43254 | 43.05051 | 7698 ft | 292 kts | 241° |
| 2026-04-27 13:33 | 11.42232 | 43.03224 | 8274 ft | 300 kts | 240° |
| 2026-04-27 13:34 | 11.41183 | 43.01371 | 8959 ft | 305 kts | 241° |
| 2026-04-27 13:34 | 11.40110 | 42.99491 | 9648 ft | 309 kts | 240° |
| 2026-04-27 13:34 | 11.39025 | 42.97598 | 10297 ft | 313 kts | 240° |
| 2026-04-27 13:34 | 11.37890 | 42.95622 | 10552 ft | 335 kts | 240° |
| 2026-04-27 13:35 | 11.36669 | 42.93499 | 10723 ft | 359 kts | 240° |
| 2026-04-27 13:35 | 11.35363 | 42.91230 | 10892 ft | 382 kts | 240° |
| 2026-04-27 13:35 | 11.34005 | 42.88873 | 11584 ft | 388 kts | 239° |
| 2026-04-27 13:35 | 11.32638 | 42.86503 | 12451 ft | 389 kts | 239° |
| 2026-04-27 13:36 | 11.31366 | 42.84070 | 13358 ft | 391 kts | 244° |
| 2026-04-27 13:36 | 11.30280 | 42.81503 | 14038 ft | 398 kts | 248° |
| 2026-04-27 13:36 | 11.29260 | 42.78861 | 14703 ft | 403 kts | 248° |
| 2026-04-27 13:36 | 11.28244 | 42.76187 | 15395 ft | 407 kts | 248° |
| 2026-04-27 13:37 | 11.27204 | 42.73480 | 16026 ft | 414 kts | 248° |
| 2026-04-27 13:37 | 11.26130 | 42.70737 | 16655 ft | 418 kts | 248° |
| 2026-04-27 13:37 | 11.25035 | 42.67982 | 17337 ft | 422 kts | 248° |
| 2026-04-27 13:37 | 11.23916 | 42.65194 | 17939 ft | 428 kts | 247° |
| 2026-04-27 13:38 | 11.22776 | 42.62371 | 18417 ft | 435 kts | 247° |
| 2026-04-27 13:38 | 11.21622 | 42.59520 | 19037 ft | 436 kts | 247° |